createdAt,value
2022-12-29T00:01:42.605Z,100.00
2022-12-29T00:04:15.269Z,100.00
2022-12-29T00:06:43.813Z,100.00
2022-12-29T00:09:13.765Z,100.00
2022-12-29T00:11:40.717Z,99.58
2022-12-29T00:14:26.266Z,99.45
2022-12-29T00:16:53.101Z,99.38
2022-12-29T00:19:38.713Z,99.27
2022-12-29T00:22:24.463Z,98.72
2022-12-29T00:25:03.005Z,98.80
2022-12-29T00:27:49.098Z,98.55
2022-12-29T00:30:36.851Z,98.69
2022-12-29T00:33:29.553Z,98.57
2022-12-29T00:36:02.269Z,98.23
2022-12-29T00:38:48.711Z,98.31
2022-12-29T00:41:33.830Z,98.24
2022-12-29T00:44:06.106Z,97.94
2022-12-29T00:46:35.329Z,98.11
2022-12-29T00:49:21.137Z,98.06
2022-12-29T00:51:48.536Z,97.98
2022-12-29T00:54:15.784Z,97.18
2022-12-29T00:56:47.431Z,97.13
2022-12-29T00:59:14.316Z,97.08
2022-12-29T01:01:41.134Z,96.87
2022-12-29T01:04:08.092Z,96.77
2022-12-29T01:06:36.069Z,97.10
2022-12-29T01:09:21.189Z,96.93
2022-12-29T01:11:47.733Z,96.76
2022-12-29T01:14:14.518Z,97.11
2022-12-29T01:16:41.222Z,97.08
2022-12-29T01:19:07.769Z,97.02
2022-12-29T01:21:34.364Z,97.24
2022-12-29T01:24:00.939Z,97.66
2022-12-29T01:26:27.611Z,97.69
2022-12-29T01:28:54.147Z,98.14
2022-12-29T01:31:20.843Z,98.33
2022-12-29T01:33:47.441Z,98.78
2022-12-29T01:36:16.325Z,99.06
2022-12-29T01:38:44.093Z,99.48
2022-12-29T01:41:14.448Z,99.36
2022-12-29T01:43:43.955Z,99.70
2022-12-29T01:46:27.667Z,99.96
2022-12-29T01:49:08.325Z,100.00
2022-12-29T01:51:41.867Z,100.00
2022-12-29T01:54:15.100Z,100.00
2022-12-29T01:56:41.732Z,100.00
2022-12-29T01:59:12.968Z,100.00
2022-12-29T02:01:39.748Z,100.00
2022-12-29T02:04:06.714Z,100.00
2022-12-29T02:06:39.532Z,100.00
2022-12-29T02:09:05.980Z,100.00
2022-12-29T02:11:32.911Z,100.00
2022-12-29T02:14:03.620Z,100.00
2022-12-29T02:16:41.445Z,100.00
2022-12-29T02:19:47.139Z,100.00
2022-12-29T02:22:40.547Z,100.00
2022-12-29T02:25:17.684Z,100.00
2022-12-29T02:27:56.783Z,100.00
2022-12-29T02:30:41.268Z,100.00
2022-12-29T02:33:14.802Z,100.00
2022-12-29T02:35:51.382Z,100.00
2022-12-29T02:38:29.913Z,100.00
2022-12-29T02:41:10.913Z,100.00
2022-12-29T02:43:43.455Z,100.00
2022-12-29T02:46:24.852Z,100.00
2022-12-29T02:49:02.621Z,99.84
2022-12-29T02:51:37.034Z,99.71
2022-12-29T02:54:23.227Z,99.56
2022-12-29T02:56:50.470Z,99.33
2022-12-29T02:59:18.069Z,98.87
2022-12-29T03:02:17.922Z,98.86
2022-12-29T03:04:54.697Z,98.78
2022-12-29T03:07:40.444Z,98.63
2022-12-29T03:10:26.911Z,98.71
2022-12-29T03:13:21.159Z,98.28
2022-12-29T03:16:03.609Z,98.34
2022-12-29T03:18:38.611Z,98.39
2022-12-29T03:21:12.262Z,97.81
2022-12-29T03:23:42.280Z,97.85
2022-12-29T03:26:13.750Z,97.56
2022-12-29T03:28:47.170Z,97.80
2022-12-29T03:31:15.414Z,97.85
2022-12-29T03:33:43.603Z,97.65
2022-12-29T03:36:17.576Z,97.71
2022-12-29T03:38:51.595Z,97.25
2022-12-29T03:41:26.999Z,97.21
2022-12-29T03:43:53.514Z,97.66
2022-12-29T03:46:20.116Z,97.30
2022-12-29T03:48:46.809Z,97.42
2022-12-29T03:51:13.325Z,97.26
2022-12-29T03:53:41.232Z,96.84
2022-12-29T03:56:07.757Z,96.65
2022-12-29T03:58:34.365Z,96.57
2022-12-29T04:01:01.192Z,96.89
2022-12-29T04:03:27.875Z,96.70
2022-12-29T04:05:54.467Z,96.89
2022-12-29T04:08:21.033Z,96.55
2022-12-29T04:10:50.039Z,96.54
2022-12-29T04:13:16.837Z,96.64
2022-12-29T04:15:46.391Z,96.26
2022-12-29T04:18:13.977Z,96.48
2022-12-29T04:20:59.488Z,96.38
2022-12-29T04:23:26.286Z,96.40
2022-12-29T04:25:52.884Z,96.47
2022-12-29T04:28:21.661Z,95.99
2022-12-29T04:30:48.815Z,95.99
2022-12-29T04:33:15.525Z,95.55
2022-12-29T04:35:44.157Z,95.12
2022-12-29T04:38:11.517Z,94.38
2022-12-29T04:40:40.760Z,94.03
2022-12-29T04:43:08.287Z,93.95
2022-12-29T04:45:35.027Z,93.38
2022-12-29T04:48:01.606Z,92.75
2022-12-29T04:50:28.231Z,92.51
2022-12-29T04:52:54.964Z,92.07
2022-12-29T04:55:22.051Z,92.13
2022-12-29T04:57:48.595Z,91.81
2022-12-29T05:00:15.759Z,91.65
2022-12-29T05:02:42.511Z,91.09
2022-12-29T05:05:09.398Z,91.02
2022-12-29T05:07:37.082Z,90.94
2022-12-29T05:10:04.466Z,91.00
2022-12-29T05:12:32.829Z,91.27
2022-12-29T05:14:59.663Z,91.59
2022-12-29T05:17:27.179Z,90.67
2022-12-29T05:19:53.705Z,90.90
2022-12-29T05:22:20.309Z,90.82
2022-12-29T05:24:47.169Z,90.54
2022-12-29T05:27:14.340Z,90.29
2022-12-29T05:29:41.227Z,90.14
2022-12-29T05:32:07.800Z,89.63
2022-12-29T05:34:34.365Z,89.63
2022-12-29T05:37:00.977Z,89.70
2022-12-29T05:39:27.609Z,89.83
2022-12-29T05:41:54.121Z,89.50
2022-12-29T05:44:20.641Z,89.33
2022-12-29T05:46:47.334Z,89.32
2022-12-29T05:49:15.019Z,89.40
2022-12-29T05:51:41.622Z,90.01
2022-12-29T05:54:08.161Z,89.79
2022-12-29T05:56:34.736Z,89.42
2022-12-29T05:59:01.473Z,89.51
2022-12-29T06:01:28.352Z,89.84
2022-12-29T06:03:55.442Z,89.98
2022-12-29T06:06:22.133Z,89.64
2022-12-29T06:08:48.707Z,89.35
2022-12-29T06:11:15.224Z,89.41
2022-12-29T06:13:41.891Z,89.58
2022-12-29T06:16:08.505Z,89.87
2022-12-29T06:18:35.117Z,90.21
2022-12-29T06:21:03.290Z,90.62
2022-12-29T06:23:30.595Z,90.10
2022-12-29T06:25:58.410Z,90.37
2022-12-29T06:28:25.019Z,90.38
2022-12-29T06:30:51.634Z,90.50
2022-12-29T06:33:18.251Z,90.69
2022-12-29T06:35:44.994Z,91.04
2022-12-29T06:38:11.615Z,90.89
2022-12-29T06:40:38.363Z,91.76
2022-12-29T06:43:04.898Z,92.01
2022-12-29T06:45:31.605Z,92.75
2022-12-29T06:47:59.339Z,92.38
2022-12-29T06:50:25.862Z,92.65
2022-12-29T06:52:52.424Z,92.46
2022-12-29T06:55:18.961Z,92.02
2022-12-29T06:57:45.576Z,91.36
2022-12-29T07:00:13.707Z,90.92
2022-12-29T07:02:42.494Z,90.78
2022-12-29T07:05:10.364Z,90.03
2022-12-29T07:07:36.928Z,89.06
2022-12-29T07:10:04.448Z,88.28
2022-12-29T07:12:31.062Z,88.13
2022-12-29T07:14:57.593Z,88.66
2022-12-29T07:17:24.142Z,89.15
2022-12-29T07:19:50.651Z,89.30
2022-12-29T07:22:17.316Z,89.81
2022-12-29T07:24:44.427Z,90.12
2022-12-29T07:27:11.017Z,90.28
2022-12-29T07:29:38.469Z,90.25
2022-12-29T07:32:05.739Z,90.67
2022-12-29T07:34:32.313Z,90.72
2022-12-29T07:36:58.842Z,90.87
2022-12-29T07:39:27.790Z,91.18
2022-12-29T07:41:58.256Z,91.21
2022-12-29T07:44:27.815Z,91.47
2022-12-29T07:46:57.456Z,91.68
2022-12-29T07:49:25.451Z,91.66
2022-12-29T07:51:52.178Z,91.67
2022-12-29T07:54:19.775Z,91.45
2022-12-29T07:56:48.035Z,91.76
2022-12-29T07:59:14.733Z,91.69
2022-12-29T08:01:41.632Z,91.95
2022-12-29T08:04:08.441Z,91.60
2022-12-29T08:06:35.689Z,91.30
2022-12-29T08:09:11.117Z,91.19
2022-12-29T08:11:41.602Z,90.39
2022-12-29T08:14:08.172Z,90.73
2022-12-29T08:16:36.193Z,90.59
2022-12-29T08:19:06.737Z,90.57
2022-12-29T08:21:33.343Z,90.17
2022-12-29T08:24:00.219Z,90.41
2022-12-29T08:26:27.136Z,90.06
2022-12-29T08:28:55.473Z,89.58
2022-12-29T08:31:22.560Z,89.43
2022-12-29T08:33:49.261Z,88.72
2022-12-29T08:36:15.890Z,88.30
2022-12-29T08:38:42.508Z,87.62
2022-12-29T08:41:09.333Z,87.25
2022-12-29T08:43:35.944Z,87.23
2022-12-29T08:46:02.915Z,86.92
2022-12-29T08:48:29.605Z,87.10
2022-12-29T08:50:56.224Z,87.05
2022-12-29T08:53:22.925Z,86.90
2022-12-29T08:56:02.421Z,87.14
2022-12-29T08:58:32.096Z,87.28
2022-12-29T09:00:59.498Z,87.90
2022-12-29T09:03:55.100Z,87.75
2022-12-29T09:06:14.593Z,87.86
2022-12-29T09:08:41.263Z,87.71
2022-12-29T09:11:14.947Z,87.45
2022-12-29T09:13:42.040Z,87.45
2022-12-29T09:16:09.043Z,87.42
2022-12-29T09:18:35.720Z,87.43
2022-12-29T09:21:04.389Z,87.43
2022-12-29T09:23:31.779Z,87.92
2022-12-29T09:25:58.450Z,87.89
2022-12-29T09:28:25.247Z,88.54
2022-12-29T09:30:52.382Z,88.94
2022-12-29T09:33:19.438Z,89.30
2022-12-29T09:35:51.256Z,90.04
2022-12-29T09:38:18.170Z,90.45
2022-12-29T09:40:50.356Z,90.68
2022-12-29T09:43:53.881Z,91.40
2022-12-29T09:46:27.718Z,92.01
2022-12-29T09:49:01.149Z,92.40
2022-12-29T09:51:28.883Z,92.91
2022-12-29T09:54:17.430Z,93.53
2022-12-29T09:56:45.410Z,93.91
2022-12-29T09:59:19.134Z,94.12
2022-12-29T10:01:55.907Z,94.05
2022-12-29T10:04:22.656Z,94.29
2022-12-29T10:07:32.137Z,94.80
2022-12-29T10:10:06.869Z,94.80
2022-12-29T10:12:37.431Z,94.89
2022-12-29T10:15:06.050Z,95.17
2022-12-29T10:17:49.516Z,95.48
2022-12-29T10:20:27.309Z,95.27
2022-12-29T10:23:02.114Z,95.62
2022-12-29T10:25:33.892Z,95.36
2022-12-29T10:28:04.453Z,95.39
2022-12-29T10:30:34.842Z,95.32
2022-12-29T10:33:06.180Z,95.62
2022-12-29T10:35:39.942Z,95.55
2022-12-29T10:38:19.774Z,95.92
2022-12-29T10:40:58.272Z,95.75
2022-12-29T10:43:29.632Z,96.04
2022-12-29T10:46:00.625Z,96.06
2022-12-29T10:48:32.158Z,96.27
2022-12-29T10:51:04.232Z,96.45
2022-12-29T10:53:46.871Z,96.50
2022-12-29T10:56:32.587Z,96.55
2022-12-29T10:59:07.051Z,96.60
2022-12-29T11:01:42.620Z,96.70
2022-12-29T11:04:17.604Z,96.59
2022-12-29T11:06:44.654Z,96.35
2022-12-29T11:09:17.659Z,96.36
2022-12-29T11:11:44.316Z,96.48
2022-12-29T11:14:19.139Z,95.92
2022-12-29T11:16:56.991Z,96.02
2022-12-29T11:19:26.487Z,95.93
2022-12-29T11:21:53.459Z,95.76
2022-12-29T11:24:26.413Z,95.92
2022-12-29T11:27:14.870Z,96.12
2022-12-29T11:29:43.147Z,96.10
2022-12-29T11:32:27.908Z,96.00
2022-12-29T11:34:55.296Z,95.95
2022-12-29T11:37:31.298Z,95.92
2022-12-29T11:40:05.505Z,95.35
2022-12-29T11:42:36.844Z,95.24
2022-12-29T11:45:31.812Z,94.83
2022-12-29T11:51:33.902Z,94.52
2022-12-29T11:54:15.108Z,94.10
2022-12-29T11:57:14.106Z,93.38
2022-12-29T11:59:45.096Z,92.66
2022-12-29T12:02:30.258Z,92.64
2022-12-29T12:05:17.245Z,92.90
2022-12-29T12:07:47.404Z,92.90
2022-12-29T12:10:24.734Z,92.90
2022-12-29T12:13:05.083Z,92.61
2022-12-29T12:15:45.998Z,93.16
2022-12-29T12:18:25.230Z,93.41
2022-12-29T12:20:59.491Z,93.57
2022-12-29T12:23:35.271Z,93.79
2022-12-29T12:26:12.183Z,94.08
2022-12-29T12:28:49.202Z,94.72
2022-12-29T12:31:26.807Z,94.78
2022-12-29T12:34:01.560Z,95.29
2022-12-29T12:36:47.621Z,95.58
2022-12-29T12:39:28.294Z,95.42
2022-12-29T12:42:07.232Z,95.88
2022-12-29T12:44:55.926Z,95.94
2022-12-29T12:47:28.530Z,96.08
2022-12-29T12:50:03.317Z,96.07
2022-12-29T12:52:49.108Z,96.44
2022-12-29T12:55:38.982Z,95.85
2022-12-29T12:58:06.624Z,95.28
2022-12-29T13:00:43.845Z,94.92
2022-12-29T13:03:18.534Z,94.83
2022-12-29T13:06:19.452Z,94.86
2022-12-29T13:09:02.062Z,94.41
2022-12-29T13:11:43.814Z,94.40
2022-12-29T13:14:17.627Z,94.34
2022-12-29T13:17:07.478Z,93.47
2022-12-29T13:19:42.467Z,93.76
2022-12-29T13:22:29.472Z,93.25
2022-12-29T13:25:09.585Z,92.58
2022-12-29T13:27:50.961Z,92.13
2022-12-29T13:30:21.477Z,92.23
2022-12-29T13:33:07.713Z,91.92
2022-12-29T13:39:21.439Z,91.64
2022-12-29T13:41:52.451Z,91.58
2022-12-29T13:44:34.687Z,91.29
2022-12-29T13:51:31.685Z,91.14
2022-12-29T13:54:18.089Z,91.25
2022-12-29T13:56:56.729Z,91.13
2022-12-29T13:59:42.001Z,90.90
2022-12-29T14:02:12.668Z,91.10
2022-12-29T14:04:57.785Z,91.00
2022-12-29T14:07:24.546Z,91.07
2022-12-29T14:09:54.318Z,91.13
2022-12-29T14:12:33.378Z,91.11
2022-12-29T14:15:05.234Z,91.67
2022-12-29T14:17:31.830Z,92.24
2022-12-29T14:19:59.504Z,92.74
2022-12-29T14:22:33.083Z,92.88
2022-12-29T14:25:00.715Z,93.22
2022-12-29T14:27:30.383Z,93.54
2022-12-29T14:29:57.028Z,93.56
2022-12-29T14:32:26.692Z,93.19
2022-12-29T14:34:56.059Z,93.01
2022-12-29T14:37:37.267Z,92.74
2022-12-29T14:40:34.664Z,92.50
2022-12-29T14:43:02.442Z,92.78
2022-12-29T14:45:33.806Z,92.94
2022-12-29T14:48:01.670Z,92.84
2022-12-29T14:50:42.066Z,93.18
2022-12-29T14:53:45.220Z,93.49
2022-12-29T14:56:14.240Z,93.75
2022-12-29T14:58:52.817Z,93.92
2022-12-29T15:01:31.135Z,94.19
2022-12-29T15:04:02.211Z,94.29
2022-12-29T15:06:33.112Z,94.52
2022-12-29T15:09:21.329Z,94.77
2022-12-29T15:11:53.534Z,94.96
2022-12-29T15:14:32.646Z,94.80
2022-12-29T15:17:00.986Z,94.89
2022-12-29T15:19:28.745Z,94.96
2022-12-29T15:21:56.561Z,95.30
2022-12-29T15:24:24.070Z,95.28
2022-12-29T15:26:53.034Z,94.99
2022-12-29T15:29:38.728Z,94.92
2022-12-29T15:32:19.285Z,95.02
2022-12-29T15:34:49.882Z,95.22
2022-12-29T15:37:23.351Z,95.10
2022-12-29T15:39:51.086Z,94.82
2022-12-29T15:42:40.955Z,94.84
2022-12-29T15:45:12.417Z,95.02
2022-12-29T15:47:41.208Z,94.72
2022-12-29T15:50:20.840Z,94.44
2022-12-29T15:52:47.310Z,94.54
2022-12-29T15:55:25.867Z,94.35
2022-12-29T15:57:57.808Z,94.39
2022-12-29T16:00:28.116Z,93.99
2022-12-29T16:02:56.165Z,94.09
2022-12-29T16:05:23.392Z,93.97
2022-12-29T16:07:57.540Z,93.75
2022-12-29T16:10:32.340Z,93.68
2022-12-29T16:13:20.984Z,93.27
2022-12-29T16:15:49.425Z,93.32
2022-12-29T16:18:27.445Z,93.12
2022-12-29T16:20:55.696Z,92.77
2022-12-29T16:23:33.772Z,92.80
2022-12-29T16:26:01.110Z,92.99
2022-12-29T16:28:40.079Z,92.64
2022-12-29T16:31:48.698Z,92.13
2022-12-29T16:34:27.411Z,92.06
2022-12-29T16:36:57.809Z,91.45
2022-12-29T16:39:32.036Z,91.42
2022-12-29T16:41:58.845Z,91.57
2022-12-29T16:44:30.106Z,91.22
2022-12-29T16:47:19.695Z,90.99
2022-12-29T16:49:52.475Z,90.90
2022-12-29T16:52:25.133Z,90.45
2022-12-29T16:54:55.736Z,90.29
2022-12-29T16:57:28.599Z,89.96
2022-12-29T17:00:00.848Z,89.99
2022-12-29T17:02:30.783Z,89.81
2022-12-29T17:04:57.579Z,89.51
2022-12-29T17:07:26.744Z,89.34
2022-12-29T17:09:54.348Z,89.16
2022-12-29T17:12:26.405Z,89.08
2022-12-29T17:15:00.313Z,89.30
2022-12-29T17:17:29.178Z,89.45
2022-12-29T17:19:59.960Z,89.38
2022-12-29T17:22:28.327Z,89.14
2022-12-29T17:24:56.993Z,89.12
2022-12-29T17:27:32.918Z,89.29
2022-12-29T17:30:05.029Z,89.05
2022-12-29T17:32:33.228Z,88.86
2022-12-29T17:34:59.859Z,88.93
2022-12-29T17:37:31.062Z,88.77
2022-12-29T17:39:59.200Z,89.01
2022-12-29T17:42:27.424Z,88.67
2022-12-29T17:44:54.303Z,88.73
2022-12-29T17:47:20.874Z,88.88
2022-12-29T17:49:48.863Z,88.76
2022-12-29T17:52:17.337Z,88.57
2022-12-29T17:54:49.653Z,88.48
2022-12-29T17:57:17.753Z,88.16
2022-12-29T17:59:44.491Z,88.26
2022-12-29T18:02:26.634Z,87.97
2022-12-29T18:04:53.944Z,88.01
2022-12-29T18:07:20.965Z,87.93
2022-12-29T18:09:47.587Z,87.63
2022-12-29T18:12:31.246Z,87.88
2022-12-29T18:14:58.397Z,87.66
2022-12-29T18:17:25.223Z,87.05
2022-12-29T18:19:54.828Z,86.36
2022-12-29T18:22:23.395Z,86.72
2022-12-29T18:24:50.800Z,86.85
2022-12-29T18:27:19.515Z,86.89
2022-12-29T18:29:46.893Z,86.80
2022-12-29T18:32:14.430Z,86.79
2022-12-29T18:34:42.635Z,86.89
2022-12-29T18:37:10.879Z,87.25
2022-12-29T18:39:37.686Z,87.03
2022-12-29T18:42:06.763Z,87.08
2022-12-29T18:44:33.916Z,86.99
2022-12-29T18:47:01.374Z,86.77
2022-12-29T18:49:28.430Z,87.21
2022-12-29T18:51:56.223Z,87.09
2022-12-29T18:54:26.413Z,87.28
2022-12-29T18:56:54.289Z,87.19
2022-12-29T18:59:23.358Z,87.08
2022-12-29T19:01:50.495Z,86.98
2022-12-29T19:04:17.182Z,86.94
2022-12-29T19:06:44.111Z,86.96
2022-12-29T19:09:10.834Z,87.21
2022-12-29T19:11:37.475Z,87.19
2022-12-29T19:14:04.665Z,87.29
2022-12-29T19:16:31.356Z,87.50
2022-12-29T19:19:09.371Z,87.34
2022-12-29T19:21:37.422Z,87.38
2022-12-29T19:24:04.251Z,87.22
2022-12-29T19:26:36.617Z,87.51
2022-12-29T19:29:06.331Z,87.33
2022-12-29T19:31:33.304Z,87.81
2022-12-29T19:34:03.016Z,87.84
2022-12-29T19:36:29.882Z,87.63
2022-12-29T19:38:56.508Z,87.75
2022-12-29T19:41:23.394Z,87.58
2022-12-29T19:43:51.799Z,87.51
2022-12-29T19:46:19.773Z,87.57
2022-12-29T19:48:46.723Z,87.85
2022-12-29T19:51:17.341Z,87.81
2022-12-29T19:53:45.313Z,87.84
2022-12-29T19:56:12.610Z,88.05
2022-12-29T19:58:45.226Z,88.21
2022-12-29T20:01:16.617Z,88.26
2022-12-29T20:03:43.583Z,87.99
2022-12-29T20:06:11.479Z,88.17
2022-12-29T20:08:39.557Z,88.09
2022-12-29T20:11:08.949Z,87.85
2022-12-29T20:13:36.131Z,88.10
2022-12-29T20:16:06.262Z,88.31
2022-12-29T20:18:35.329Z,88.26
2022-12-29T20:21:06.803Z,88.13
2022-12-29T20:23:34.628Z,88.31
2022-12-29T20:26:02.790Z,88.06
2022-12-29T20:28:29.803Z,88.26
2022-12-29T20:31:00.813Z,88.24
2022-12-29T20:33:28.789Z,88.35
2022-12-29T20:36:03.389Z,88.44
2022-12-29T20:38:30.006Z,88.25
2022-12-29T20:40:56.634Z,88.60
2022-12-29T20:43:23.252Z,88.71
2022-12-29T20:45:51.110Z,88.44
2022-12-29T20:48:17.985Z,88.51
2022-12-29T20:50:44.597Z,88.55
2022-12-29T20:53:11.831Z,88.52
2022-12-29T20:55:41.307Z,88.53
2022-12-29T20:58:24.771Z,88.75
2022-12-29T21:00:52.256Z,88.74
2022-12-29T21:03:19.681Z,88.34
2022-12-29T21:05:46.432Z,88.22
2022-12-29T21:08:16.232Z,88.28
2022-12-29T21:10:47.523Z,88.33
2022-12-29T21:13:14.836Z,88.52
2022-12-29T21:15:41.704Z,88.30
2022-12-29T21:18:08.431Z,88.50
2022-12-29T21:20:35.146Z,88.30
2022-12-29T21:23:03.271Z,88.24
2022-12-29T21:25:37.275Z,87.90
2022-12-29T21:31:08.616Z,87.70
2022-12-29T21:33:38.564Z,87.57
2022-12-29T21:36:07.193Z,87.33
2022-12-29T21:38:34.635Z,87.56
2022-12-29T21:41:16.005Z,87.80
2022-12-29T21:43:45.262Z,87.75
2022-12-29T21:46:11.978Z,87.86
2022-12-29T21:48:38.594Z,88.05
2022-12-29T21:51:30.839Z,88.05
2022-12-29T21:54:20.628Z,87.97
2022-12-29T21:56:48.861Z,88.13
2022-12-29T21:59:35.008Z,88.09
2022-12-29T22:02:22.292Z,88.28
2022-12-29T22:05:07.755Z,88.46
2022-12-29T22:07:52.735Z,88.43
2022-12-29T22:10:37.701Z,88.28
2022-12-29T22:13:04.311Z,88.48
2022-12-29T22:15:34.079Z,88.53
2022-12-29T22:18:01.482Z,88.62
2022-12-29T22:20:31.751Z,88.73
2022-12-29T22:22:58.923Z,88.66
2022-12-29T22:25:27.735Z,88.47
2022-12-29T22:27:59.211Z,88.72
2022-12-29T22:30:27.804Z,88.59
2022-12-29T22:32:54.583Z,88.75
2022-12-29T22:35:22.257Z,88.73
2022-12-29T22:37:48.845Z,88.74
2022-12-29T22:40:16.113Z,88.68
2022-12-29T22:42:42.799Z,88.68
2022-12-29T22:45:09.973Z,88.90
2022-12-29T22:47:36.592Z,88.53
2022-12-29T22:50:04.164Z,88.54
2022-12-29T22:52:31.634Z,88.74
2022-12-29T22:55:04.567Z,88.68
2022-12-29T22:57:33.483Z,88.56
2022-12-29T23:00:00.062Z,88.57
2022-12-29T23:02:27.245Z,88.52
2022-12-29T23:05:09.513Z,88.86
2022-12-29T23:07:36.440Z,88.88
2022-12-29T23:10:04.993Z,88.76
2022-12-29T23:12:32.165Z,88.92
2022-12-29T23:14:58.815Z,89.19
2022-12-29T23:17:25.466Z,89.27
2022-12-29T23:19:52.316Z,89.26
2022-12-29T23:22:19.006Z,89.06
2022-12-29T23:24:52.414Z,89.43
2022-12-29T23:27:25.579Z,89.26
2022-12-29T23:29:52.122Z,89.30
2022-12-29T23:32:18.675Z,89.35
2022-12-29T23:34:45.261Z,89.38
2022-12-29T23:37:12.058Z,89.64
2022-12-29T23:39:41.708Z,89.45
2022-12-29T23:42:14.913Z,89.47
2022-12-29T23:44:41.429Z,89.42
2022-12-29T23:47:08.037Z,89.59
2022-12-29T23:49:34.689Z,89.42
2022-12-29T23:52:03.259Z,89.50
2022-12-29T23:54:29.867Z,89.64
2022-12-29T23:56:56.465Z,89.37
2022-12-29T23:59:23.097Z,89.43
